createdAt,value
2022-10-22T00:01:03.733Z,9.60
2022-10-22T00:04:06.228Z,8.95
2022-10-22T00:07:08.664Z,8.93
2022-10-22T00:10:11.170Z,8.40
2022-10-22T00:13:13.545Z,8.93
2022-10-22T00:16:15.946Z,9.52
2022-10-22T00:19:18.356Z,9.38
2022-10-22T00:22:20.768Z,8.50
2022-10-22T00:25:23.141Z,7.38
2022-10-22T00:28:25.734Z,8.60
2022-10-22T00:31:28.189Z,8.52
2022-10-22T00:34:30.664Z,8.32
2022-10-22T00:37:32.999Z,8.60
2022-10-22T00:40:36.466Z,8.38
2022-10-22T00:44:32.926Z,8.55
2022-10-22T00:47:41.059Z,8.98
2022-10-22T00:50:49.589Z,9.63
2022-10-22T00:53:56.083Z,9.10
2022-10-22T00:56:58.494Z,9.13
2022-10-22T01:00:01.044Z,9.35
2022-10-22T01:03:03.553Z,8.63
2022-10-22T01:06:06.243Z,9.05
2022-10-22T01:09:18.999Z,8.57
2022-10-22T01:12:27.348Z,9.38
2022-10-22T01:15:36.120Z,8.38
2022-10-22T01:18:49.146Z,8.15
2022-10-22T01:21:59.019Z,8.35
2022-10-22T01:25:25.039Z,8.73
2022-10-22T01:28:45.619Z,8.48
2022-10-22T01:32:05.780Z,8.82
2022-10-22T01:35:11.408Z,9.38
2022-10-22T01:38:17.858Z,7.93
2022-10-22T01:41:20.313Z,8.50
2022-10-22T01:44:31.192Z,8.63
2022-10-22T01:47:46.740Z,8.52
2022-10-22T01:50:53.213Z,9.73
2022-10-22T01:54:18.077Z,9.23
2022-10-22T01:57:42.490Z,8.67
2022-10-22T02:00:50.970Z,8.25
2022-10-22T02:03:59.468Z,8.95
2022-10-22T02:07:04.943Z,8.55
2022-10-22T02:10:09.185Z,8.10
2022-10-22T02:13:25.140Z,8.57
2022-10-22T02:16:32.580Z,8.25
2022-10-22T02:19:42.363Z,7.82
2022-10-22T02:22:44.923Z,8.48
2022-10-22T02:25:49.874Z,8.07
2022-10-22T02:29:08.146Z,8.33
2022-10-22T02:32:13.127Z,8.60
2022-10-22T02:35:20.774Z,8.43
2022-10-22T02:38:24.240Z,8.48
2022-10-22T02:41:26.859Z,9.10
2022-10-22T02:44:30.304Z,8.27
2022-10-22T02:47:33.467Z,7.97
2022-10-22T02:50:36.036Z,7.90
2022-10-22T02:53:38.440Z,8.27
2022-10-22T02:56:41.987Z,8.48
2022-10-22T02:59:45.043Z,7.70
2022-10-22T03:02:47.518Z,7.95
2022-10-22T03:05:52.759Z,8.30
2022-10-22T03:08:55.181Z,8.13
2022-10-22T03:11:57.633Z,7.20
2022-10-22T03:14:59.967Z,8.30
2022-10-22T03:18:02.393Z,8.15
2022-10-22T03:21:14.545Z,8.27
2022-10-22T03:24:22.732Z,7.75
2022-10-22T03:27:25.844Z,8.18
2022-10-22T03:30:29.444Z,7.67
2022-10-22T03:33:32.340Z,8.52
2022-10-22T03:36:34.749Z,8.40
2022-10-22T03:39:37.366Z,8.50
2022-10-22T03:42:40.641Z,8.57
2022-10-22T03:45:42.997Z,8.80
2022-10-22T03:48:45.532Z,8.85
2022-10-22T03:51:47.885Z,10.00
2022-10-22T03:54:50.217Z,9.15
2022-10-22T03:57:52.707Z,9.13
2022-10-22T04:00:55.128Z,9.50
2022-10-22T04:03:58.211Z,9.35
2022-10-22T04:07:00.662Z,8.65
2022-10-22T04:10:03.587Z,8.70
2022-10-22T04:13:05.997Z,9.50
2022-10-22T04:16:19.328Z,8.90
2022-10-22T04:19:23.165Z,9.45
2022-10-22T04:22:26.156Z,9.50
2022-10-22T04:25:28.482Z,8.60
2022-10-22T04:28:31.350Z,8.95
2022-10-22T04:31:34.039Z,9.07
2022-10-22T04:34:36.428Z,9.07
2022-10-22T04:37:39.119Z,9.35
2022-10-22T04:40:41.949Z,8.95
2022-10-22T04:43:45.276Z,10.13
2022-10-22T04:46:47.673Z,8.77
2022-10-22T04:49:49.988Z,8.20
2022-10-22T04:52:52.536Z,8.88
2022-10-22T04:55:55.598Z,8.95
2022-10-22T04:59:06.788Z,9.00
2022-10-22T05:02:09.388Z,8.87
2022-10-22T05:05:11.994Z,10.00
2022-10-22T05:08:14.362Z,8.85
2022-10-22T05:11:19.886Z,10.00
2022-10-22T05:14:24.964Z,10.65
2022-10-22T05:17:28.758Z,9.17
2022-10-22T05:20:31.174Z,10.25
2022-10-22T05:23:33.587Z,10.00
2022-10-22T05:26:35.903Z,9.95
2022-10-22T05:29:38.344Z,11.30
2022-10-22T05:32:40.740Z,9.60
2022-10-22T05:35:46.707Z,10.07
2022-10-22T05:38:49.977Z,10.50
2022-10-22T05:41:53.893Z,10.32
2022-10-22T05:44:56.265Z,11.48
2022-10-22T05:47:58.647Z,10.20
2022-10-22T05:51:06.391Z,10.38
2022-10-22T05:54:10.959Z,10.45
2022-10-22T05:57:13.313Z,10.93
2022-10-22T06:00:17.468Z,9.70
2022-10-22T06:03:20.204Z,10.10
2022-10-22T06:06:35.491Z,10.00
2022-10-22T06:12:48.068Z,9.60
2022-10-22T06:15:52.670Z,9.80
2022-10-22T06:18:56.147Z,10.10
2022-10-22T06:21:59.085Z,10.10
2022-10-22T06:25:01.472Z,10.20
2022-10-22T06:28:04.009Z,10.02
2022-10-22T06:31:07.046Z,12.30
2022-10-22T06:34:13.529Z,13.07
2022-10-22T06:37:16.298Z,15.60
2022-10-22T06:40:19.367Z,10.65
2022-10-22T06:43:21.699Z,10.45
2022-10-22T06:46:25.149Z,9.80
2022-10-22T06:49:27.636Z,9.77
2022-10-22T06:52:30.010Z,11.55
2022-10-22T06:55:32.432Z,11.02
2022-10-22T06:58:35.192Z,11.45
2022-10-22T07:01:38.225Z,9.82
2022-10-22T07:04:40.663Z,11.27
2022-10-22T07:07:43.045Z,12.15
2022-10-22T07:10:45.505Z,10.63
2022-10-22T07:13:48.619Z,11.00
2022-10-22T07:16:50.924Z,9.68
2022-10-22T07:19:53.432Z,8.63
2022-10-22T07:22:55.853Z,9.57
2022-10-22T07:25:59.155Z,9.07
2022-10-22T07:29:02.073Z,8.10
2022-10-22T07:32:04.681Z,7.60
2022-10-22T07:35:07.354Z,7.23
2022-10-22T07:38:09.744Z,6.20
2022-10-22T07:41:12.451Z,6.45
2022-10-22T07:44:14.809Z,7.55
2022-10-22T07:47:17.167Z,7.45
2022-10-22T07:50:19.640Z,7.93
2022-10-22T07:53:22.087Z,8.32
2022-10-22T07:56:24.569Z,7.43
2022-10-22T07:59:27.020Z,7.47
2022-10-22T08:02:29.365Z,7.55
2022-10-22T08:05:31.767Z,7.30
2022-10-22T08:08:34.768Z,8.98
2022-10-22T08:11:38.396Z,8.50
2022-10-22T08:14:40.796Z,7.55
2022-10-22T08:17:43.629Z,7.15
2022-10-22T08:20:46.681Z,7.87
2022-10-22T08:23:49.112Z,7.70
2022-10-22T08:26:52.161Z,7.13
2022-10-22T08:29:54.698Z,6.70
2022-10-22T08:32:57.540Z,6.95
2022-10-22T08:35:59.894Z,6.80
2022-10-22T08:39:03.518Z,6.82
2022-10-22T08:42:27.150Z,6.72
2022-10-22T08:45:52.274Z,7.10
2022-10-22T08:48:57.228Z,6.45
2022-10-22T08:52:00.182Z,8.37
2022-10-22T08:55:04.372Z,8.00
2022-10-22T08:58:30.007Z,8.23
2022-10-22T09:01:38.870Z,7.40
2022-10-22T09:04:47.886Z,7.40
2022-10-22T09:07:50.824Z,7.13
2022-10-22T09:11:07.659Z,7.45
2022-10-22T09:17:38.782Z,8.10
2022-10-22T09:20:49.745Z,7.68
2022-10-22T09:24:15.164Z,8.50
2022-10-22T09:27:20.006Z,7.95
2022-10-22T09:30:23.952Z,7.32
2022-10-22T09:33:28.323Z,7.80
2022-10-22T09:36:30.791Z,8.27
2022-10-22T09:39:41.499Z,7.93
2022-10-22T09:42:45.393Z,8.50
2022-10-22T09:45:50.000Z,8.95
2022-10-22T09:48:55.844Z,8.52
2022-10-22T09:51:59.549Z,8.15
2022-10-22T09:55:02.840Z,8.93
2022-10-22T09:58:05.263Z,9.45
2022-10-22T10:01:07.628Z,9.45
2022-10-22T10:04:16.045Z,8.95
2022-10-22T10:07:21.654Z,9.02
2022-10-22T10:10:47.365Z,11.17
2022-10-22T10:13:54.539Z,9.90
2022-10-22T10:17:01.060Z,9.73
2022-10-22T10:20:26.630Z,10.98
2022-10-22T10:23:49.041Z,9.50
2022-10-22T10:27:06.385Z,9.63
2022-10-22T10:30:21.156Z,10.73
2022-10-22T10:33:49.972Z,10.13
2022-10-22T10:37:19.529Z,10.43
2022-10-22T10:40:40.537Z,11.35
2022-10-22T10:43:45.669Z,8.93
2022-10-22T10:47:16.444Z,11.90
2022-10-22T10:50:26.448Z,11.20
2022-10-22T10:53:59.649Z,10.90
2022-10-22T10:57:20.824Z,11.25
2022-10-22T11:00:23.919Z,9.93
2022-10-22T11:03:35.698Z,11.68
2022-10-22T11:06:40.457Z,10.88
2022-10-22T11:10:13.098Z,11.38
2022-10-22T11:13:31.431Z,12.93
2022-10-22T11:16:42.679Z,11.20
2022-10-22T11:20:05.251Z,12.40
2022-10-22T11:23:19.873Z,12.70
2022-10-22T11:26:35.891Z,10.70
2022-10-22T11:29:42.060Z,13.02
2022-10-22T11:32:50.194Z,12.13
2022-10-22T11:35:53.196Z,13.27
2022-10-22T11:38:55.672Z,14.20
2022-10-22T11:41:59.838Z,12.35
2022-10-22T11:45:08.000Z,13.50
2022-10-22T11:48:10.356Z,13.87
2022-10-22T11:51:35.549Z,26.20
2022-10-22T11:54:42.856Z,19.00
2022-10-22T11:57:48.554Z,19.10
2022-10-22T12:00:51.335Z,25.17
2022-10-22T12:03:59.284Z,28.03
2022-10-22T12:07:02.359Z,17.65
2022-10-22T12:10:06.440Z,14.00
2022-10-22T12:13:14.175Z,12.68
2022-10-22T12:16:23.613Z,14.15
2022-10-22T12:19:51.528Z,13.70
2022-10-22T12:22:55.372Z,13.65
2022-10-22T12:25:58.273Z,13.93
2022-10-22T12:29:03.107Z,14.05
2022-10-22T12:32:05.656Z,14.85
2022-10-22T12:35:15.066Z,14.60
2022-10-22T12:38:22.962Z,14.40
2022-10-22T12:41:37.443Z,14.27
2022-10-22T12:44:40.620Z,14.13
2022-10-22T12:47:50.566Z,13.40
2022-10-22T12:50:55.023Z,14.80
2022-10-22T12:54:02.204Z,14.18
2022-10-22T12:57:04.661Z,14.90
2022-10-22T13:00:21.084Z,15.23
2022-10-22T13:03:32.762Z,15.27
2022-10-22T13:06:35.884Z,16.20
2022-10-22T13:09:40.105Z,16.30
2022-10-22T13:12:50.076Z,22.30
2022-10-22T13:15:52.496Z,21.00
2022-10-22T13:18:54.901Z,22.55
2022-10-22T13:21:57.281Z,24.73
2022-10-22T13:25:22.264Z,28.35
2022-10-22T13:28:27.222Z,34.13
2022-10-22T13:31:37.757Z,30.98
2022-10-22T13:34:40.662Z,33.17
2022-10-22T13:37:43.458Z,31.33
2022-10-22T13:40:46.751Z,22.20
2022-10-22T13:43:49.296Z,18.45
2022-10-22T13:46:51.652Z,35.42
2022-10-22T13:49:58.264Z,25.45
2022-10-22T13:53:00.893Z,16.50
2022-10-22T13:56:03.505Z,15.88
2022-10-22T13:59:05.840Z,25.50
2022-10-22T14:02:11.531Z,26.33
2022-10-22T14:05:14.184Z,26.83
2022-10-22T14:08:19.085Z,18.13
2022-10-22T14:11:21.756Z,71.53
2022-10-22T14:14:24.147Z,106.35
2022-10-22T14:17:27.777Z,67.13
2022-10-22T14:20:32.317Z,58.85
2022-10-22T14:23:36.333Z,44.77
2022-10-22T14:26:38.713Z,29.85
2022-10-22T14:29:41.650Z,34.20
2022-10-22T14:32:44.383Z,30.55
2022-10-22T14:35:49.737Z,33.55
2022-10-22T14:38:52.554Z,27.83
2022-10-22T14:41:54.869Z,24.95
2022-10-22T14:44:57.260Z,25.35
2022-10-22T14:47:59.991Z,32.15
2022-10-22T14:51:02.331Z,23.50
2022-10-22T14:54:04.798Z,19.93
2022-10-22T14:57:08.716Z,23.33
2022-10-22T15:00:18.296Z,27.15
2022-10-22T15:03:20.636Z,38.03
2022-10-22T15:06:23.132Z,32.80
2022-10-22T15:09:25.633Z,31.50
2022-10-22T15:12:28.172Z,25.48
2022-10-22T15:15:33.985Z,31.27
2022-10-22T15:18:41.555Z,28.45
2022-10-22T15:21:44.803Z,24.25
2022-10-22T15:24:48.508Z,27.87
2022-10-22T15:27:52.503Z,26.98
2022-10-22T15:30:58.295Z,26.65
2022-10-22T15:34:01.945Z,31.63
2022-10-22T15:37:06.983Z,35.35
2022-10-22T15:40:10.686Z,49.70
2022-10-22T15:43:14.078Z,41.80
2022-10-22T15:46:18.598Z,43.42
2022-10-22T15:49:21.971Z,64.07
2022-10-22T15:52:24.440Z,70.43
2022-10-22T15:55:26.991Z,65.03
2022-10-22T15:58:29.370Z,58.53
2022-10-22T16:01:34.914Z,63.03
2022-10-22T16:04:38.530Z,71.70
2022-10-22T16:07:41.170Z,104.35
2022-10-22T16:10:48.940Z,87.67
2022-10-22T16:13:57.201Z,89.90
2022-10-22T16:17:01.619Z,62.53
2022-10-22T16:20:04.326Z,62.03
2022-10-22T16:23:07.080Z,75.00
2022-10-22T16:26:09.890Z,58.57
2022-10-22T16:29:12.705Z,52.78
2022-10-22T16:32:16.969Z,52.80
2022-10-22T16:35:20.045Z,56.45
2022-10-22T16:38:22.825Z,84.57
2022-10-22T16:41:26.205Z,90.57
2022-10-22T16:44:29.345Z,83.82
2022-10-22T16:47:31.790Z,66.10
2022-10-22T16:50:34.624Z,61.42
2022-10-22T16:53:38.280Z,59.40
2022-10-22T16:56:41.137Z,87.33
2022-10-22T16:59:43.491Z,106.53
2022-10-22T17:02:51.226Z,144.57
2022-10-22T17:05:53.746Z,170.52
2022-10-22T17:08:56.515Z,95.68
2022-10-22T17:11:59.098Z,69.60
2022-10-22T17:15:03.374Z,66.80
2022-10-22T17:18:06.153Z,61.95
2022-10-22T17:21:10.869Z,81.00
2022-10-22T17:24:14.626Z,67.00
2022-10-22T17:27:17.553Z,61.17
2022-10-22T17:30:24.808Z,61.20
2022-10-22T17:33:31.464Z,56.72
2022-10-22T17:36:35.975Z,49.72
2022-10-22T17:39:38.830Z,69.20
2022-10-22T17:42:42.797Z,85.63
2022-10-22T17:45:46.325Z,70.65
2022-10-22T17:48:54.028Z,61.85
2022-10-22T17:51:56.959Z,54.78
2022-10-22T17:54:59.619Z,51.45
2022-10-22T17:58:02.299Z,57.90
2022-10-22T18:01:05.507Z,62.72
2022-10-22T18:04:08.587Z,65.28
2022-10-22T18:07:12.278Z,65.20
2022-10-22T18:10:16.451Z,62.38
2022-10-22T18:13:20.910Z,54.47
2022-10-22T18:16:23.956Z,50.13
2022-10-22T18:19:26.620Z,46.55
2022-10-22T18:22:29.144Z,51.45
2022-10-22T18:25:31.865Z,45.50
2022-10-22T18:28:34.698Z,45.43
2022-10-22T18:31:37.348Z,43.95
2022-10-22T18:34:40.159Z,43.80
2022-10-22T18:37:43.094Z,44.47
2022-10-22T18:40:46.778Z,40.17
2022-10-22T18:43:54.670Z,42.87
2022-10-22T18:46:57.397Z,38.47
2022-10-22T18:50:00.088Z,36.65
2022-10-22T18:53:02.557Z,33.92
2022-10-22T18:56:07.078Z,35.97
2022-10-22T18:59:21.311Z,37.67
2022-10-22T19:02:24.395Z,40.05
2022-10-22T19:05:27.136Z,40.47
2022-10-22T19:08:30.976Z,39.40
2022-10-22T19:11:34.458Z,38.35
2022-10-22T19:14:37.998Z,37.33
2022-10-22T19:17:41.818Z,38.03
2022-10-22T19:20:47.137Z,35.42
2022-10-22T19:23:50.242Z,33.97
2022-10-22T19:26:52.723Z,33.67
2022-10-22T19:29:55.307Z,39.87
2022-10-22T19:32:58.008Z,37.72
2022-10-22T19:36:05.379Z,36.80
2022-10-22T19:39:08.891Z,34.10
2022-10-22T19:42:11.239Z,29.60
2022-10-22T19:45:13.831Z,26.87
2022-10-22T19:48:16.344Z,29.90
2022-10-22T19:51:24.566Z,32.67
2022-10-22T19:54:28.613Z,34.80
2022-10-22T19:57:32.008Z,34.00
2022-10-22T20:00:35.984Z,30.93
2022-10-22T20:03:39.059Z,30.52
2022-10-22T20:06:42.053Z,33.25
2022-10-22T20:09:45.712Z,34.92
2022-10-22T20:12:48.759Z,31.70
2022-10-22T20:15:53.476Z,29.23
2022-10-22T20:19:00.815Z,29.10
2022-10-22T20:22:03.282Z,27.85
2022-10-22T20:25:06.148Z,28.52
2022-10-22T20:28:09.535Z,26.98
2022-10-22T20:31:14.519Z,22.97
2022-10-22T20:34:17.105Z,25.40
2022-10-22T20:37:19.505Z,23.73
2022-10-22T20:40:22.081Z,22.08
2022-10-22T20:43:25.738Z,22.08
2022-10-22T20:46:31.223Z,24.30
2022-10-22T20:49:33.692Z,23.17
2022-10-22T20:52:36.279Z,23.90
2022-10-22T20:55:38.689Z,23.33
2022-10-22T20:58:47.617Z,21.65
2022-10-22T21:01:52.059Z,20.37
2022-10-22T21:04:54.424Z,22.67
2022-10-22T21:07:58.425Z,21.42
2022-10-22T21:11:00.901Z,21.70
2022-10-22T21:14:04.514Z,22.08
2022-10-22T21:17:08.149Z,22.60
2022-10-22T21:23:17.760Z,23.80
2022-10-22T21:26:20.680Z,20.75
2022-10-22T21:29:23.154Z,20.75
2022-10-22T21:32:29.020Z,22.70
2022-10-22T21:35:32.389Z,25.85
2022-10-22T21:38:34.818Z,27.13
2022-10-22T21:41:37.756Z,21.33
2022-10-22T21:44:40.140Z,21.00
2022-10-22T21:47:43.220Z,18.40
2022-10-22T21:50:45.881Z,22.30
2022-10-22T21:53:48.340Z,18.90
2022-10-22T21:56:50.836Z,20.02
2022-10-22T21:59:53.211Z,18.48
2022-10-22T22:02:56.050Z,18.07
2022-10-22T22:05:59.512Z,20.13
2022-10-22T22:09:02.767Z,22.00
2022-10-22T22:12:05.277Z,21.77
2022-10-22T22:15:08.377Z,21.15
2022-10-22T22:18:11.610Z,21.33
2022-10-22T22:21:17.255Z,19.75
2022-10-22T22:24:19.643Z,21.70
2022-10-22T22:27:22.042Z,20.90
2022-10-22T22:30:25.056Z,22.20
2022-10-22T22:33:27.760Z,22.53
2022-10-22T22:36:34.980Z,20.25
2022-10-22T22:39:37.417Z,20.67
2022-10-22T22:42:39.816Z,21.58
2022-10-22T22:45:42.175Z,23.90
2022-10-22T22:48:48.429Z,22.87
2022-10-22T22:51:51.977Z,22.65
2022-10-22T22:54:54.477Z,21.80
2022-10-22T22:57:57.622Z,21.58
2022-10-22T23:01:16.666Z,20.70
2022-10-22T23:04:23.660Z,20.83
2022-10-22T23:07:26.088Z,23.38
2022-10-22T23:10:28.489Z,26.40
2022-10-22T23:13:31.758Z,26.40
2022-10-22T23:16:37.265Z,24.38
2022-10-22T23:19:39.637Z,22.50
2022-10-22T23:22:42.154Z,22.95
2022-10-22T23:25:44.744Z,22.10
2022-10-22T23:28:47.252Z,21.40
2022-10-22T23:31:50.804Z,27.55
2022-10-22T23:34:53.223Z,24.57
2022-10-22T23:37:55.575Z,25.55
2022-10-22T23:40:58.002Z,26.17
2022-10-22T23:44:02.070Z,23.30
2022-10-22T23:47:04.848Z,24.35
2022-10-22T23:50:07.886Z,20.47
2022-10-22T23:53:10.369Z,19.27
2022-10-22T23:56:15.471Z,17.65
2022-10-22T23:59:17.877Z,21.13
